createdAt,value
2022-07-28T00:00:04.168Z,0.00
2022-07-28T00:00:36.100Z,0.00
2022-07-28T00:01:08.092Z,0.00
2022-07-28T00:01:40.139Z,0.00
2022-07-28T00:02:12.185Z,0.00
2022-07-28T00:02:44.106Z,0.00
2022-07-28T00:03:16.185Z,0.00
2022-07-28T00:03:48.055Z,0.00
2022-07-28T00:04:20.134Z,0.00
2022-07-28T00:04:52.089Z,0.00
2022-07-28T00:05:24.094Z,0.00
2022-07-28T00:05:56.092Z,0.00
2022-07-28T00:06:28.100Z,0.00
2022-07-28T00:07:00.096Z,0.00
2022-07-28T00:07:32.064Z,0.00
2022-07-28T00:08:04.060Z,0.00
2022-07-28T00:08:36.119Z,0.00
2022-07-28T00:09:08.101Z,0.00
2022-07-28T00:09:40.112Z,0.00
2022-07-28T00:10:12.069Z,0.00
2022-07-28T00:10:44.122Z,0.00
2022-07-28T00:11:16.118Z,0.00
2022-07-28T00:11:50.297Z,0.00
2022-07-28T00:12:20.116Z,0.00
2022-07-28T00:12:52.117Z,0.00
2022-07-28T00:13:24.147Z,0.00
2022-07-28T00:13:56.119Z,0.00
2022-07-28T00:14:28.112Z,0.00
2022-07-28T00:15:00.155Z,0.00
2022-07-28T00:15:32.074Z,0.00
2022-07-28T00:16:04.145Z,0.00
2022-07-28T00:16:36.171Z,0.00
2022-07-28T00:17:08.086Z,0.00
2022-07-28T00:17:40.075Z,0.00
2022-07-28T00:18:12.079Z,0.00
2022-07-28T00:18:44.074Z,0.00
2022-07-28T00:19:16.117Z,0.00
2022-07-28T00:19:48.130Z,0.00
2022-07-28T00:20:20.131Z,0.00
2022-07-28T00:20:52.122Z,0.00
2022-07-28T00:21:24.082Z,0.00
2022-07-28T00:21:56.133Z,0.00
2022-07-28T00:22:28.130Z,0.00
2022-07-28T00:23:00.111Z,0.00
2022-07-28T00:23:37.622Z,0.00
2022-07-28T00:24:04.085Z,0.00
2022-07-28T00:24:36.096Z,0.00
2022-07-28T00:25:08.129Z,0.00
2022-07-28T00:25:40.138Z,0.00
2022-07-28T00:26:12.132Z,0.00
2022-07-28T00:26:46.553Z,0.00
2022-07-28T00:27:18.632Z,0.00
2022-07-28T00:27:48.087Z,0.00
2022-07-28T00:28:20.119Z,0.00
2022-07-28T00:28:52.087Z,0.00
2022-07-28T00:29:24.092Z,0.00
2022-07-28T00:29:56.088Z,0.00
2022-07-28T00:30:28.149Z,0.00
2022-07-28T00:31:05.240Z,0.00
2022-07-28T00:31:32.151Z,0.00
2022-07-28T00:32:04.176Z,0.00
2022-07-28T00:32:36.092Z,0.00
2022-07-28T00:33:08.131Z,0.00
2022-07-28T00:33:40.251Z,0.00
2022-07-28T00:34:12.451Z,0.00
2022-07-28T00:34:44.097Z,0.00
2022-07-28T00:35:16.102Z,0.00
2022-07-28T00:35:48.776Z,0.00
2022-07-28T00:36:20.140Z,0.00
2022-07-28T00:36:52.154Z,0.00
2022-07-28T00:37:24.144Z,0.00
2022-07-28T00:37:56.135Z,0.00
2022-07-28T00:38:28.145Z,0.00
2022-07-28T00:39:00.174Z,0.00
2022-07-28T00:39:32.097Z,0.00
2022-07-28T00:40:04.144Z,0.00
2022-07-28T00:40:36.188Z,0.00
2022-07-28T00:41:08.144Z,0.00
2022-07-28T00:41:40.109Z,0.00
2022-07-28T00:42:12.158Z,0.00
2022-07-28T00:42:44.162Z,0.00
2022-07-28T00:43:16.142Z,0.00
2022-07-28T00:43:48.139Z,0.00
2022-07-28T00:44:20.109Z,0.00
2022-07-28T00:44:52.103Z,0.00
2022-07-28T00:45:24.129Z,0.00
2022-07-28T00:45:56.151Z,0.00
2022-07-28T00:46:28.199Z,0.00
2022-07-28T00:47:00.273Z,0.00
2022-07-28T00:47:33.750Z,0.00
2022-07-28T00:48:04.175Z,0.00
2022-07-28T00:48:36.200Z,0.00
2022-07-28T00:49:08.269Z,0.00
2022-07-28T00:49:40.181Z,0.00
2022-07-28T00:50:12.117Z,0.00
2022-07-28T00:50:44.189Z,0.00
2022-07-28T00:51:16.116Z,0.00
2022-07-28T00:51:48.167Z,0.00
2022-07-28T00:52:20.173Z,0.00
2022-07-28T00:52:52.119Z,0.00
2022-07-28T00:53:24.177Z,0.00
2022-07-28T00:53:56.155Z,0.00
2022-07-28T00:54:28.124Z,0.00
2022-07-28T00:55:00.196Z,0.00
2022-07-28T00:55:32.170Z,0.00
2022-07-28T00:56:35.175Z,0.00
2022-07-28T00:57:07.146Z,0.00
2022-07-28T00:57:39.175Z,0.00
2022-07-28T00:58:11.280Z,0.00
2022-07-28T00:58:43.178Z,0.00
2022-07-28T00:59:15.140Z,0.00
2022-07-28T00:59:47.178Z,0.00
2022-07-28T01:00:19.194Z,0.00
2022-07-28T01:00:51.187Z,0.00
2022-07-28T01:01:23.209Z,0.00
2022-07-28T01:01:55.287Z,0.00
2022-07-28T01:02:27.387Z,0.00
2022-07-28T01:02:59.219Z,0.00
2022-07-28T01:03:31.139Z,0.00
2022-07-28T01:04:03.140Z,0.00
2022-07-28T01:04:35.166Z,0.00
2022-07-28T01:05:07.182Z,0.00
2022-07-28T01:05:43.642Z,0.00
2022-07-28T01:06:11.353Z,0.00
2022-07-28T01:06:43.197Z,0.00
2022-07-28T01:07:15.141Z,0.00
2022-07-28T01:07:47.145Z,0.00
2022-07-28T01:08:19.181Z,0.00
2022-07-28T01:08:51.191Z,0.00
2022-07-28T01:09:23.178Z,0.00
2022-07-28T01:09:55.142Z,0.00
2022-07-28T01:10:27.132Z,0.00
2022-07-28T01:10:59.192Z,0.00
2022-07-28T01:11:31.183Z,0.00
2022-07-28T01:12:03.197Z,0.00
2022-07-28T01:12:35.180Z,0.00
2022-07-28T01:13:07.194Z,0.00
2022-07-28T01:13:39.197Z,0.00
2022-07-28T01:14:11.835Z,0.00
2022-07-28T01:14:43.147Z,0.00
2022-07-28T01:15:15.299Z,0.00
2022-07-28T01:15:47.304Z,0.00
2022-07-28T01:16:23.619Z,0.00
2022-07-28T01:16:51.213Z,0.00
2022-07-28T01:17:23.207Z,0.00
2022-07-28T01:17:55.222Z,0.00
2022-07-28T01:18:27.206Z,0.00
2022-07-28T01:18:59.202Z,0.00
2022-07-28T01:19:31.200Z,0.00
2022-07-28T01:20:03.198Z,0.00
2022-07-28T01:20:35.158Z,0.00
2022-07-28T01:21:07.174Z,0.00
2022-07-28T01:21:39.172Z,0.00
2022-07-28T01:22:12.543Z,0.00
2022-07-28T01:22:43.161Z,0.00
2022-07-28T01:23:15.206Z,0.00
2022-07-28T01:23:47.211Z,0.00
2022-07-28T01:24:19.163Z,0.00
2022-07-28T01:24:51.203Z,0.00
2022-07-28T01:25:23.191Z,0.00
2022-07-28T01:25:55.156Z,0.00
2022-07-28T01:26:27.205Z,0.00
2022-07-28T01:26:59.211Z,0.00
2022-07-28T01:27:31.208Z,0.00
2022-07-28T01:28:03.204Z,0.00
2022-07-28T01:28:35.209Z,0.00
2022-07-28T01:29:07.175Z,0.00
2022-07-28T01:29:39.168Z,0.00
2022-07-28T01:30:11.310Z,0.00
2022-07-28T01:30:43.405Z,0.00
2022-07-28T01:31:15.321Z,0.00
2022-07-28T01:31:47.318Z,0.00
2022-07-28T01:32:19.215Z,0.00
2022-07-28T01:32:51.217Z,0.00
2022-07-28T01:33:23.204Z,0.00
2022-07-28T01:33:55.216Z,0.00
2022-07-28T01:34:27.209Z,0.00
2022-07-28T01:34:59.217Z,0.00
2022-07-28T01:35:31.226Z,0.00
2022-07-28T01:36:03.208Z,0.00
2022-07-28T01:36:35.163Z,0.00
2022-07-28T01:37:07.172Z,0.00
2022-07-28T01:37:39.181Z,0.00
2022-07-28T01:38:11.271Z,0.00
2022-07-28T01:38:43.176Z,0.00
2022-07-28T01:39:15.274Z,0.00
2022-07-28T01:39:47.272Z,0.00
2022-07-28T01:40:19.227Z,0.00
2022-07-28T01:40:51.193Z,0.00
2022-07-28T01:41:23.222Z,0.00
2022-07-28T01:41:55.274Z,0.00
2022-07-28T01:42:27.225Z,0.00
2022-07-28T01:42:59.245Z,0.00
2022-07-28T01:43:31.234Z,0.00
2022-07-28T01:44:03.219Z,0.00
2022-07-28T01:44:35.188Z,0.00
2022-07-28T01:45:07.251Z,0.00
2022-07-28T01:45:39.219Z,0.00
2022-07-28T01:46:11.346Z,0.00
2022-07-28T01:46:43.287Z,0.00
2022-07-28T01:47:15.191Z,0.00
2022-07-28T01:47:47.199Z,0.00
2022-07-28T01:48:19.198Z,0.00
2022-07-28T01:48:51.346Z,0.00
2022-07-28T01:49:23.410Z,0.00
2022-07-28T01:49:55.195Z,0.00
2022-07-28T01:50:27.226Z,0.00
2022-07-28T01:50:59.254Z,0.00
2022-07-28T01:51:31.202Z,0.00
2022-07-28T01:52:03.245Z,0.00
2022-07-28T01:52:35.248Z,0.00
2022-07-28T01:53:07.199Z,0.00
2022-07-28T01:53:39.209Z,0.00
2022-07-28T01:54:11.717Z,0.00
2022-07-28T01:54:43.195Z,0.00
2022-07-28T01:55:15.401Z,0.00
2022-07-28T01:55:47.446Z,0.00
2022-07-28T01:56:19.438Z,0.00
2022-07-28T01:56:51.251Z,0.00
2022-07-28T01:57:23.197Z,0.00
2022-07-28T01:57:55.243Z,0.00
2022-07-28T01:58:27.241Z,0.00
2022-07-28T01:58:59.201Z,0.00
2022-07-28T01:59:31.809Z,0.00
2022-07-28T02:00:03.422Z,0.00
2022-07-28T02:00:35.242Z,0.00
2022-07-28T02:01:07.351Z,0.00
2022-07-28T02:01:39.302Z,0.00
2022-07-28T02:02:11.381Z,0.00
2022-07-28T02:02:43.270Z,0.00
2022-07-28T02:03:15.289Z,0.00
2022-07-28T02:03:47.277Z,0.00
2022-07-28T02:04:19.264Z,0.00
2022-07-28T02:04:51.291Z,0.00
2022-07-28T02:05:23.339Z,0.00
2022-07-28T02:05:55.282Z,0.00
2022-07-28T02:06:27.260Z,0.00
2022-07-28T02:06:59.247Z,0.00
2022-07-28T02:07:31.220Z,0.00
2022-07-28T02:08:03.229Z,0.00
2022-07-28T02:08:35.222Z,0.00
2022-07-28T02:09:07.213Z,0.00
2022-07-28T02:09:39.222Z,0.00
2022-07-28T02:10:11.363Z,0.00
2022-07-28T02:10:43.268Z,0.00
2022-07-28T02:11:15.276Z,0.00
2022-07-28T02:11:47.319Z,0.00
2022-07-28T02:12:19.237Z,0.00
2022-07-28T02:12:51.245Z,0.00
2022-07-28T02:13:23.236Z,0.00
2022-07-28T02:13:55.232Z,0.00
2022-07-28T02:14:27.276Z,0.00
2022-07-28T02:14:59.259Z,0.00
2022-07-28T02:15:31.473Z,0.00
2022-07-28T02:16:03.326Z,0.00
2022-07-28T02:16:35.279Z,0.00
2022-07-28T02:17:07.266Z,0.00
2022-07-28T02:17:39.229Z,0.00
2022-07-28T02:18:11.336Z,0.00
2022-07-28T02:18:43.285Z,0.00
2022-07-28T02:19:15.254Z,0.00
2022-07-28T02:19:47.248Z,0.00
2022-07-28T02:20:19.284Z,0.00
2022-07-28T02:20:51.241Z,0.00
2022-07-28T02:21:23.287Z,0.00
2022-07-28T02:21:55.251Z,0.00
2022-07-28T02:22:27.255Z,0.00
2022-07-28T02:22:59.279Z,0.00
2022-07-28T02:23:31.303Z,0.00
2022-07-28T02:24:03.241Z,0.00
2022-07-28T02:24:35.279Z,0.00
2022-07-28T02:25:07.240Z,0.00
2022-07-28T02:25:39.292Z,0.00
2022-07-28T02:26:11.387Z,0.00
2022-07-28T02:26:43.791Z,0.00
2022-07-28T02:27:15.311Z,0.00
2022-07-28T02:27:47.342Z,0.00
2022-07-28T02:28:19.291Z,0.00
2022-07-28T02:28:51.302Z,0.00
2022-07-28T02:29:49.218Z,0.00
2022-07-28T02:29:55.249Z,0.00
2022-07-28T02:30:27.461Z,0.00
2022-07-28T02:30:59.349Z,0.00
2022-07-28T02:31:31.426Z,0.00
2022-07-28T02:32:03.303Z,0.00
2022-07-28T02:32:35.310Z,0.00
2022-07-28T02:33:07.301Z,0.00
2022-07-28T02:33:59.699Z,0.00
2022-07-28T02:34:11.441Z,0.00
2022-07-28T02:34:43.300Z,0.00
2022-07-28T02:35:15.302Z,0.00
2022-07-28T02:35:49.090Z,0.00
2022-07-28T02:36:19.299Z,0.00
2022-07-28T02:36:51.337Z,0.00
2022-07-28T02:37:23.328Z,0.00
2022-07-28T02:37:55.306Z,0.00
2022-07-28T02:38:27.256Z,0.00
2022-07-28T02:38:59.285Z,0.00
2022-07-28T02:39:31.312Z,0.00
2022-07-28T02:40:03.279Z,0.00
2022-07-28T02:40:35.299Z,0.00
2022-07-28T02:41:07.310Z,0.00
2022-07-28T02:41:39.303Z,0.00
2022-07-28T02:42:11.425Z,0.00
2022-07-28T02:42:43.258Z,0.00
2022-07-28T02:43:15.351Z,0.00
2022-07-28T02:43:49.791Z,0.00
2022-07-28T02:44:19.309Z,0.00
2022-07-28T02:44:51.313Z,0.00
2022-07-28T02:45:23.488Z,0.00
2022-07-28T02:45:55.345Z,0.00
2022-07-28T02:46:27.326Z,0.00
2022-07-28T02:46:59.343Z,0.00
2022-07-28T02:47:31.322Z,0.00
2022-07-28T02:48:03.274Z,0.00
2022-07-28T02:48:35.397Z,0.00
2022-07-28T02:49:07.440Z,0.00
2022-07-28T02:49:39.298Z,0.00
2022-07-28T02:50:11.370Z,0.00
2022-07-28T02:50:43.262Z,0.00
2022-07-28T02:51:15.275Z,0.00
2022-07-28T02:51:47.354Z,0.00
2022-07-28T02:52:19.327Z,0.00
2022-07-28T02:52:51.317Z,0.00
2022-07-28T02:53:23.318Z,0.00
2022-07-28T02:53:55.322Z,0.00
2022-07-28T02:54:27.329Z,0.00
2022-07-28T02:54:59.286Z,0.00
2022-07-28T02:55:31.370Z,0.00
2022-07-28T02:56:03.287Z,0.00
2022-07-28T02:56:35.280Z,0.00
2022-07-28T02:57:07.324Z,0.00
2022-07-28T02:57:39.317Z,0.00
2022-07-28T02:58:11.377Z,0.00
2022-07-28T02:58:43.324Z,0.00
2022-07-28T02:59:15.326Z,0.00
2022-07-28T02:59:47.295Z,0.00
2022-07-28T03:00:19.502Z,0.00
2022-07-28T03:00:51.356Z,0.00
2022-07-28T03:01:23.331Z,0.00
2022-07-28T03:01:55.408Z,0.00
2022-07-28T03:02:27.341Z,0.00
2022-07-28T03:02:59.300Z,0.00
2022-07-28T03:03:31.289Z,0.00
2022-07-28T03:04:03.290Z,0.00
2022-07-28T03:04:35.386Z,0.00
2022-07-28T03:05:07.564Z,0.00
2022-07-28T03:05:39.365Z,0.00
2022-07-28T03:06:11.387Z,0.00
2022-07-28T03:06:43.339Z,0.00
2022-07-28T03:07:15.329Z,0.00
2022-07-28T03:07:51.135Z,0.00
2022-07-28T03:08:19.303Z,0.00
2022-07-28T03:08:51.338Z,0.00
2022-07-28T03:09:23.331Z,0.00
2022-07-28T03:09:55.353Z,0.00
2022-07-28T03:10:34.142Z,0.00
2022-07-28T03:10:59.355Z,0.00
2022-07-28T03:11:31.315Z,0.00
2022-07-28T03:12:03.355Z,0.00
2022-07-28T03:12:35.358Z,0.00
2022-07-28T03:13:07.341Z,0.00
2022-07-28T03:13:39.351Z,0.00
2022-07-28T03:14:11.694Z,0.00
2022-07-28T03:14:43.305Z,0.00
2022-07-28T03:15:15.540Z,0.00
2022-07-28T03:15:47.403Z,0.00
2022-07-28T03:16:19.381Z,0.00
2022-07-28T03:16:55.474Z,0.00
2022-07-28T03:17:23.401Z,0.00
2022-07-28T03:17:55.355Z,0.00
2022-07-28T03:18:27.307Z,0.00
2022-07-28T03:18:59.312Z,0.00
2022-07-28T03:19:31.309Z,0.00
2022-07-28T03:20:03.349Z,0.00
2022-07-28T03:20:35.356Z,0.00
2022-07-28T03:21:07.348Z,0.00
2022-07-28T03:21:39.301Z,0.00
2022-07-28T03:22:11.421Z,0.00
2022-07-28T03:22:43.315Z,0.00
2022-07-28T03:23:15.355Z,0.00
2022-07-28T03:23:47.418Z,0.00
2022-07-28T03:24:19.319Z,0.00
2022-07-28T03:24:51.323Z,0.00
2022-07-28T03:25:23.378Z,0.00
2022-07-28T03:25:55.316Z,0.00
2022-07-28T03:26:27.319Z,0.00
2022-07-28T03:26:59.386Z,0.00
2022-07-28T03:27:31.368Z,0.00
2022-07-28T03:28:03.367Z,0.00
2022-07-28T03:28:35.331Z,0.00
2022-07-28T03:29:07.366Z,0.00
2022-07-28T03:29:39.375Z,0.00
2022-07-28T03:30:11.606Z,0.00
2022-07-28T03:30:43.480Z,0.00
2022-07-28T03:31:16.036Z,0.00
2022-07-28T03:31:47.330Z,0.00
2022-07-28T03:32:19.388Z,0.00
2022-07-28T03:32:51.418Z,0.00
2022-07-28T03:33:23.363Z,0.00
2022-07-28T03:33:55.373Z,0.00
2022-07-28T03:34:27.365Z,0.00
2022-07-28T03:34:59.378Z,0.00
2022-07-28T03:35:31.369Z,0.00
2022-07-28T03:36:03.373Z,0.00
2022-07-28T03:36:35.319Z,0.36
2022-07-28T03:37:07.418Z,0.36
2022-07-28T03:37:39.380Z,0.36
2022-07-28T03:38:11.503Z,1.22
2022-07-28T03:38:43.368Z,0.85
2022-07-28T03:39:15.407Z,1.22
2022-07-28T03:39:47.418Z,0.36
2022-07-28T03:40:19.455Z,1.22
2022-07-28T03:40:51.411Z,1.22
2022-07-28T03:41:23.406Z,1.22
2022-07-28T03:41:55.411Z,1.71
2022-07-28T03:42:27.405Z,1.22
2022-07-28T03:42:59.479Z,1.71
2022-07-28T03:43:31.368Z,1.22
2022-07-28T03:44:03.419Z,1.71
2022-07-28T03:44:35.408Z,2.08
2022-07-28T03:45:07.580Z,1.71
2022-07-28T03:45:40.982Z,2.94
2022-07-28T03:46:13.316Z,2.08
2022-07-28T03:46:43.382Z,2.94
2022-07-28T03:47:15.424Z,2.57
2022-07-28T03:47:47.464Z,2.94
2022-07-28T03:48:19.419Z,3.43
2022-07-28T03:48:51.454Z,3.43
2022-07-28T03:49:23.533Z,3.79
2022-07-28T03:49:55.369Z,2.94
2022-07-28T03:50:27.366Z,3.79
2022-07-28T03:50:59.376Z,3.43
2022-07-28T03:51:31.436Z,3.43
2022-07-28T03:52:03.389Z,4.28
2022-07-28T03:52:35.518Z,3.79
2022-07-28T03:53:07.416Z,3.79
2022-07-28T03:53:39.459Z,4.28
2022-07-28T03:54:11.836Z,4.28
2022-07-28T03:54:43.472Z,4.77
2022-07-28T03:55:15.465Z,4.77
2022-07-28T03:55:47.461Z,4.77
2022-07-28T03:56:19.432Z,5.63
2022-07-28T03:56:51.428Z,5.14
2022-07-28T03:57:23.424Z,5.63
2022-07-28T03:57:55.379Z,5.99
2022-07-28T03:58:28.564Z,5.63
2022-07-28T03:58:59.437Z,5.63
2022-07-28T03:59:31.404Z,6.48
2022-07-28T04:00:09.071Z,5.99
2022-07-28T04:00:35.428Z,5.99
2022-07-28T04:01:07.590Z,6.85
2022-07-28T04:01:39.465Z,6.48
2022-07-28T04:02:11.597Z,6.48
2022-07-28T04:02:43.659Z,6.85
2022-07-28T04:03:36.339Z,7.34
2022-07-28T04:03:47.472Z,6.85
2022-07-28T04:04:19.400Z,6.85
2022-07-28T04:04:51.485Z,7.70
2022-07-28T04:05:23.446Z,6.85
2022-07-28T04:05:55.404Z,8.56
2022-07-28T04:06:27.462Z,7.70
2022-07-28T04:06:59.430Z,8.19
2022-07-28T04:07:31.423Z,9.54
2022-07-28T04:08:03.463Z,9.05
2022-07-28T04:08:35.491Z,9.05
2022-07-28T04:09:07.461Z,9.05
2022-07-28T04:09:39.535Z,9.05
2022-07-28T04:10:11.597Z,9.54
2022-07-28T04:10:43.500Z,9.05
2022-07-28T04:11:15.504Z,9.54
2022-07-28T04:11:47.516Z,9.91
2022-07-28T04:12:19.528Z,9.91
2022-07-28T04:12:51.464Z,10.39
2022-07-28T04:13:23.498Z,10.39
2022-07-28T04:13:55.538Z,10.39
2022-07-28T04:14:27.507Z,10.39
2022-07-28T04:14:59.475Z,11.62
2022-07-28T04:15:31.588Z,11.62
2022-07-28T04:16:03.508Z,11.62
2022-07-28T04:16:35.579Z,11.25
2022-07-28T04:17:07.531Z,11.62
2022-07-28T04:17:39.531Z,12.11
2022-07-28T04:18:11.529Z,12.97
2022-07-28T04:18:43.478Z,12.48
2022-07-28T04:19:15.469Z,12.11
2022-07-28T04:19:47.558Z,13.82
2022-07-28T04:20:19.425Z,13.33
2022-07-28T04:20:51.527Z,14.31
2022-07-28T04:21:23.470Z,14.31
2022-07-28T04:21:55.485Z,15.17
2022-07-28T04:22:27.482Z,14.31
2022-07-28T04:22:59.477Z,15.17
2022-07-28T04:23:31.488Z,14.68
2022-07-28T04:24:03.480Z,16.02
2022-07-28T04:24:35.490Z,15.17
2022-07-28T04:25:07.481Z,16.88
2022-07-28T04:25:39.539Z,16.02
2022-07-28T04:26:11.607Z,16.39
2022-07-28T04:26:44.117Z,16.88
2022-07-28T04:27:15.448Z,16.88
2022-07-28T04:27:47.525Z,16.88
2022-07-28T04:28:19.542Z,16.39
2022-07-28T04:28:51.446Z,17.25
2022-07-28T04:29:27.494Z,16.39
2022-07-28T04:29:55.452Z,17.73
2022-07-28T04:30:27.725Z,17.73
2022-07-28T04:30:59.586Z,17.73
2022-07-28T04:31:31.638Z,18.11
2022-07-28T04:32:03.447Z,18.11
2022-07-28T04:32:35.548Z,18.11
2022-07-28T04:33:07.497Z,18.11
2022-07-28T04:33:39.466Z,19.08
2022-07-28T04:34:11.802Z,19.08
2022-07-28T04:34:43.496Z,19.45
2022-07-28T04:35:17.518Z,19.94
2022-07-28T04:35:47.964Z,20.31
2022-07-28T04:36:19.546Z,21.16
2022-07-28T04:36:51.516Z,21.16
2022-07-28T04:37:23.508Z,22.02
2022-07-28T04:37:55.468Z,22.02
2022-07-28T04:38:27.509Z,21.65
2022-07-28T04:38:59.604Z,22.02
2022-07-28T04:39:31.560Z,22.87
2022-07-28T04:40:03.518Z,22.87
2022-07-28T04:40:35.511Z,23.85
2022-07-28T04:41:07.515Z,23.85
2022-07-28T04:41:39.512Z,24.22
2022-07-28T04:42:11.628Z,22.87
2022-07-28T04:42:43.522Z,24.71
2022-07-28T04:43:15.515Z,24.71
2022-07-28T04:43:47.523Z,25.07
2022-07-28T04:44:19.477Z,24.22
2022-07-28T04:44:51.521Z,25.07
2022-07-28T04:45:23.687Z,25.56
2022-07-28T04:45:55.565Z,26.42
2022-07-28T04:46:27.621Z,25.94
2022-07-28T04:46:59.579Z,26.42
2022-07-28T04:47:31.490Z,27.65
2022-07-28T04:48:03.524Z,28.14
2022-07-28T04:48:35.599Z,28.63
2022-07-28T04:49:07.628Z,28.99
2022-07-28T04:49:39.574Z,29.48
2022-07-28T04:50:11.623Z,29.85
2022-07-28T04:50:43.518Z,30.34
2022-07-28T04:51:15.517Z,31.19
2022-07-28T04:51:47.527Z,31.56
2022-07-28T04:52:19.499Z,32.05
2022-07-28T04:52:51.480Z,30.70
2022-07-28T04:53:23.484Z,32.42
2022-07-28T04:53:55.572Z,32.05
2022-07-28T04:54:27.529Z,32.42
2022-07-28T04:54:59.535Z,32.42
2022-07-28T04:55:31.543Z,32.42
2022-07-28T04:56:03.523Z,33.39
2022-07-28T04:56:35.537Z,33.39
2022-07-28T04:57:10.384Z,33.39
2022-07-28T04:57:39.540Z,32.42
2022-07-28T04:58:11.642Z,33.39
2022-07-28T04:58:43.542Z,33.39
2022-07-28T04:59:15.494Z,33.76
2022-07-28T04:59:47.590Z,34.25
2022-07-28T05:00:19.683Z,33.76
2022-07-28T05:00:51.595Z,33.76
2022-07-28T05:01:23.627Z,34.25
2022-07-28T05:01:55.607Z,34.62
2022-07-28T05:02:27.552Z,34.62
2022-07-28T05:02:59.527Z,34.25
2022-07-28T05:03:35.733Z,35.11
2022-07-28T05:04:03.550Z,35.11
2022-07-28T05:04:35.656Z,35.48
2022-07-28T05:05:07.614Z,34.62
2022-07-28T05:05:39.565Z,34.62
2022-07-28T05:06:11.615Z,34.62
2022-07-28T05:06:43.578Z,34.62
2022-07-28T05:07:15.554Z,35.11
2022-07-28T05:07:47.657Z,35.11
2022-07-28T05:08:19.545Z,35.11
2022-07-28T05:08:51.502Z,35.48
2022-07-28T05:09:23.548Z,35.11
2022-07-28T05:09:55.543Z,35.97
2022-07-28T05:10:27.594Z,36.33
2022-07-28T05:10:59.508Z,36.82
2022-07-28T05:11:31.600Z,37.19
2022-07-28T05:12:03.525Z,37.19
2022-07-28T05:12:35.513Z,37.68
2022-07-28T05:13:07.507Z,38.17
2022-07-28T05:13:39.548Z,39.02
2022-07-28T05:14:12.620Z,39.02
2022-07-28T05:14:43.567Z,39.39
2022-07-28T05:15:15.691Z,39.39
2022-07-28T05:15:47.606Z,39.88
2022-07-28T05:16:19.648Z,40.24
2022-07-28T05:16:51.657Z,40.24
2022-07-28T05:17:23.560Z,40.24
2022-07-28T05:17:55.516Z,40.24
2022-07-28T05:18:27.567Z,40.73
2022-07-28T05:18:59.628Z,40.73
2022-07-28T05:19:31.626Z,41.59
2022-07-28T05:20:03.729Z,41.59
2022-07-28T05:20:35.570Z,41.10
2022-07-28T05:21:07.588Z,41.96
2022-07-28T05:21:39.582Z,42.45
2022-07-28T05:22:11.685Z,41.96
2022-07-28T05:22:43.572Z,42.94
2022-07-28T05:23:15.582Z,42.45
2022-07-28T05:23:47.869Z,42.45
2022-07-28T05:24:19.623Z,42.94
2022-07-28T05:24:51.579Z,42.94
2022-07-28T05:25:23.633Z,43.31
2022-07-28T05:25:55.579Z,44.16
2022-07-28T05:26:27.537Z,43.31
2022-07-28T05:26:59.598Z,43.80
2022-07-28T05:27:31.549Z,45.02
2022-07-28T05:28:03.576Z,44.65
2022-07-28T05:28:35.586Z,44.65
2022-07-28T05:29:07.583Z,44.65
2022-07-28T05:29:46.806Z,45.87
2022-07-28T05:30:11.869Z,45.02
2022-07-28T05:30:43.726Z,45.02
2022-07-28T05:31:15.703Z,45.87
2022-07-28T05:31:47.735Z,46.73
2022-07-28T05:32:19.629Z,46.36
2022-07-28T05:32:51.666Z,46.36
2022-07-28T05:33:23.581Z,47.22
2022-07-28T05:33:55.550Z,47.22
2022-07-28T05:34:27.588Z,47.71
2022-07-28T05:34:59.568Z,48.56
2022-07-28T05:35:31.632Z,48.56
2022-07-28T05:36:03.591Z,48.56
2022-07-28T05:36:35.548Z,49.79
2022-07-28T05:37:07.575Z,49.42
2022-07-28T05:37:39.659Z,50.28
2022-07-28T05:38:11.737Z,50.65
2022-07-28T05:38:43.583Z,51.14
2022-07-28T05:39:15.560Z,51.99
2022-07-28T05:39:47.633Z,51.99
2022-07-28T05:40:20.155Z,52.85
2022-07-28T05:40:51.605Z,54.56
2022-07-28T05:41:23.626Z,54.19
2022-07-28T05:41:55.686Z,54.56
2022-07-28T05:42:27.567Z,56.27
2022-07-28T05:42:59.592Z,56.76
2022-07-28T05:43:31.594Z,57.25
2022-07-28T05:44:03.557Z,56.76
2022-07-28T05:44:38.255Z,58.48
2022-07-28T05:45:16.804Z,59.82
2022-07-28T05:45:39.825Z,59.33
2022-07-28T05:46:11.795Z,61.53
2022-07-28T05:46:43.609Z,61.53
2022-07-28T05:47:15.566Z,62.88
2022-07-28T05:47:47.641Z,62.39
2022-07-28T05:48:19.625Z,63.24
2022-07-28T05:48:51.634Z,64.96
2022-07-28T05:49:23.617Z,65.45
2022-07-28T05:49:55.568Z,66.31
2022-07-28T05:50:27.648Z,66.31
2022-07-28T05:50:59.627Z,66.80
2022-07-28T05:51:31.608Z,67.65
2022-07-28T05:52:03.617Z,68.87
2022-07-28T05:52:35.566Z,69.73
2022-07-28T05:53:07.606Z,70.71
2022-07-28T05:53:39.615Z,71.56
2022-07-28T05:54:12.021Z,71.56
2022-07-28T05:54:43.568Z,73.28
2022-07-28T05:55:15.654Z,72.79
2022-07-28T05:56:00.270Z,73.28
2022-07-28T05:56:19.611Z,73.28
2022-07-28T05:56:51.630Z,73.28
2022-07-28T05:57:23.653Z,71.56
2022-07-28T05:57:55.567Z,71.93
2022-07-28T05:58:27.613Z,71.93
2022-07-28T05:58:59.619Z,72.79
2022-07-28T05:59:31.567Z,70.71
2022-07-28T06:00:03.787Z,72.79
2022-07-28T06:00:35.609Z,72.42
2022-07-28T06:01:07.708Z,72.42
2022-07-28T06:01:39.676Z,72.42
2022-07-28T06:02:11.806Z,73.65
2022-07-28T06:02:43.757Z,73.65
2022-07-28T06:03:15.586Z,73.65
2022-07-28T06:03:58.092Z,73.28
2022-07-28T06:04:28.030Z,71.07
2022-07-28T06:04:51.630Z,73.65
2022-07-28T06:05:23.664Z,73.28
2022-07-28T06:06:09.329Z,72.79
2022-07-28T06:06:27.628Z,75.85
2022-07-28T06:06:59.644Z,85.39
2022-07-28T06:07:43.297Z,67.65
2022-07-28T06:08:03.618Z,111.44
2022-07-28T06:08:35.665Z,68.02
2022-07-28T06:09:07.617Z,70.71
2022-07-28T06:09:43.363Z,69.36
2022-07-28T06:10:11.730Z,85.88
2022-07-28T06:10:43.646Z,144.36
2022-07-28T06:11:21.564Z,135.67
2022-07-28T06:11:47.746Z,142.27
2022-07-28T06:12:19.678Z,138.73
2022-07-28T06:12:51.730Z,160.51
2022-07-28T06:13:23.620Z,179.10
2022-07-28T06:13:55.625Z,77.19
2022-07-28T06:14:27.584Z,78.05
2022-07-28T06:14:59.668Z,194.27
2022-07-28T06:15:31.790Z,199.04
2022-07-28T06:16:03.730Z,199.04
2022-07-28T06:16:35.665Z,203.44
2022-07-28T06:17:07.821Z,212.13
2022-07-28T06:17:39.629Z,219.47
2022-07-28T06:18:11.840Z,219.83
2022-07-28T06:18:43.696Z,213.84
2022-07-28T06:19:15.718Z,215.07
2022-07-28T06:19:47.679Z,100.19
2022-07-28T06:20:19.701Z,227.30
2022-07-28T06:20:51.673Z,219.47
2022-07-28T06:21:23.710Z,197.81
2022-07-28T06:21:55.709Z,123.56
2022-07-28T06:22:27.677Z,164.29
2022-07-28T06:22:59.718Z,162.58
2022-07-28T06:23:31.712Z,166.13
2022-07-28T06:24:03.614Z,206.38
2022-07-28T06:24:35.661Z,213.35
2022-07-28T06:25:07.709Z,171.27
2022-07-28T06:25:39.674Z,193.41
2022-07-28T06:26:11.748Z,161.36
2022-07-28T06:26:44.645Z,161.73
2022-07-28T06:27:15.634Z,166.99
2022-07-28T06:27:47.713Z,160.51
2022-07-28T06:28:19.698Z,158.67
2022-07-28T06:28:51.624Z,159.53
2022-07-28T06:29:23.670Z,175.67
2022-07-28T06:29:55.670Z,188.64
2022-07-28T06:30:27.992Z,178.61
2022-07-28T06:30:59.699Z,189.98
2022-07-28T06:31:31.817Z,210.29
2022-07-28T06:32:03.773Z,229.01
2022-07-28T06:32:35.739Z,234.15
2022-07-28T06:33:07.648Z,238.56
2022-07-28T06:33:39.683Z,235.00
2022-07-28T06:34:12.150Z,233.29
2022-07-28T06:34:43.733Z,229.38
2022-07-28T06:35:15.645Z,238.92
2022-07-28T06:35:51.428Z,226.44
2022-07-28T06:36:19.686Z,222.53
2022-07-28T06:36:51.716Z,218.12
2022-07-28T06:37:23.728Z,213.84
2022-07-28T06:37:55.737Z,211.64
2022-07-28T06:38:27.764Z,208.58
2022-07-28T06:38:59.676Z,210.29
2022-07-28T06:39:31.697Z,212.49
2022-07-28T06:40:03.733Z,216.90
2022-07-28T06:40:35.701Z,226.81
2022-07-28T06:41:07.696Z,229.87
2022-07-28T06:41:39.705Z,225.95
2022-07-28T06:42:11.857Z,229.38
2022-07-28T06:42:43.744Z,203.81
2022-07-28T06:43:15.798Z,218.61
2022-07-28T06:43:47.785Z,217.27
2022-07-28T06:44:20.182Z,226.44
2022-07-28T06:44:58.897Z,228.52
2022-07-28T06:45:23.865Z,227.30
2022-07-28T06:45:55.679Z,214.21
2022-07-28T06:46:27.743Z,229.38
2022-07-28T06:46:59.854Z,219.47
2022-07-28T06:47:31.665Z,226.44
2022-07-28T06:48:03.706Z,233.29
2022-07-28T06:48:35.834Z,234.64
2022-07-28T06:49:07.738Z,240.27
2022-07-28T06:49:39.670Z,239.78
2022-07-28T06:50:25.539Z,253.73
2022-07-28T06:50:43.754Z,249.44
2022-07-28T06:51:15.676Z,238.92
2022-07-28T06:51:47.815Z,236.35
2022-07-28T06:52:19.762Z,228.15
2022-07-28T06:52:51.664Z,217.27
2022-07-28T06:53:23.713Z,211.64
2022-07-28T06:53:55.661Z,214.21
2022-07-28T06:54:27.747Z,227.30
2022-07-28T06:54:59.680Z,215.92
2022-07-28T06:55:35.252Z,175.67
2022-07-28T06:56:03.709Z,178.24
2022-07-28T06:56:35.677Z,196.47
2022-07-28T06:57:07.728Z,206.38
2022-07-28T06:57:39.728Z,200.75
2022-07-28T06:58:11.819Z,190.36
2022-07-28T06:58:46.810Z,183.50
2022-07-28T06:59:16.172Z,190.84